Patterson, Idaho
Current Conditions -  °F | °C
As of 9:55 PM on Friday 28 Nov 2014 (Local Time) from KLLJ Reporting Station
Overcast Overcast  
Wind Chill: 39°   Ceiling: 7500
Heat Index: 47°   Visibility: 10mi
Dew Point: 26°   Wind: 22mph
Humidity: 44%   Direction: 210°SSW
Pressure: 29.57"   Gusts: 29mph
Location:  44.6701°N, 113.812°W
Report Text: KLLJ 290455Z AUTO 21019G25KT 10SM FEW050 OVC075 08/M03 A2957 RMK AO2 PK WND 25030/0443 SLP989 T00831033
Loading
Personal Weather Stations






























Interactive Weather Map New forecast layout! Learn more

10-Day Weather Forecast

Advertisements
Track Severe Weather on mobile